Time;durP1;ratioP1;P1;durP2;ratioP2;P2;SDS_P1;SDS_P2;PMS_P1;PMS_P2;Temp;Humidity;BMP_temperature;BMP_pressure;BME280_temperature;BME280_humidity;BME280_pressure;Samples;Min_cycle;Max_cycle;Signal;HPM_P1;HPM_P2
2023/04/10 00:00:10;;;;;;;59.08;46.13;;;7.90;99.90;;;;;;7377517;19;20025;-63
2023/04/10 00:02:37;;;;;;;57.30;46.53;;;8.00;99.90;;;;;;7374220;19;20871;-63
2023/04/10 00:05:05;;;;;;;55.03;44.92;;;8.00;99.90;;;;;;7373910;19;20077;-62
2023/04/10 00:07:31;;;;;;;56.92;46.72;;;8.00;99.90;;;;;;7369981;19;20035;-62
2023/04/10 00:09:57;;;;;;;56.53;46.28;;;7.90;99.90;;;;;;7375713;19;20055;-62
2023/04/10 00:12:24;;;;;;;53.53;45.92;;;7.90;99.90;;;;;;7376004;19;20014;-67
2023/04/10 00:14:51;;;;;;;58.13;45.90;;;7.90;99.90;;;;;;7373385;19;20850;-68
2023/04/10 00:17:19;;;;;;;59.00;47.05;;;7.80;99.90;;;;;;7365630;19;20022;-68
2023/04/10 00:19:46;;;;;;;53.70;46.65;;;7.80;99.90;;;;;;7376701;19;20034;-68
2023/04/10 00:22:14;;;;;;;58.80;48.03;;;7.80;99.90;;;;;;7373793;19;20105;-68
2023/04/10 00:24:40;;;;;;;57.75;47.42;;;7.80;99.90;;;;;;7372258;19;20671;-67
2023/04/10 00:27:07;;;;;;;59.58;48.22;;;7.80;99.90;;;;;;7375302;19;20090;-67
2023/04/10 00:29:33;;;;;;;57.28;48.53;;;7.70;99.90;;;;;;7373301;19;20019;-67
2023/04/10 00:31:59;;;;;;;56.35;48.83;;;7.70;99.90;;;;;;7376933;19;20114;-67
2023/04/10 00:34:25;;;;;;;53.90;46.67;;;7.70;99.90;;;;;;7370678;19;20025;-67
2023/04/10 00:36:52;;;;;;;59.67;48.03;;;7.60;99.90;;;;;;7370491;19;20022;-67
2023/04/10 00:39:18;;;;;;;61.72;49.33;;;7.60;99.90;;;;;;7369458;19;20022;-67
2023/04/10 00:41:44;;;;;;;64.45;51.72;;;7.50;99.90;;;;;;7376594;19;20496;-68
2023/04/10 00:44:11;;;;;;;59.70;49.80;;;7.50;99.90;;;;;;7375288;19;20019;-62
2023/04/10 00:46:38;;;;;;;64.20;50.45;;;7.50;99.90;;;;;;7370442;19;20033;-62
2023/04/10 00:49:05;;;;;;;62.10;52.00;;;7.50;99.90;;;;;;7374030;19;20025;-62
2023/04/10 00:51:32;;;;;;;61.33;51.38;;;7.40;99.90;;;;;;7372104;19;20018;-62
2023/04/10 00:54:01;;;;;;;64.70;50.58;;;7.40;99.90;;;;;;7372377;19;20022;-67
2023/04/10 00:56:32;;;;;;;62.60;51.95;;;7.30;99.90;;;;;;7369076;19;20666;-62
2023/04/10 00:58:59;;;;;;;64.50;53.67;;;7.30;99.90;;;;;;7370564;19;20021;-62
2023/04/10 01:01:25;;;;;;;71.97;55.42;;;7.20;99.90;;;;;;7371521;19;20022;-63
2023/04/10 01:03:53;;;;;;;64.93;54.67;;;7.20;99.90;;;;;;7376397;19;20093;-63
2023/04/10 01:06:38;;;;;;;68.05;54.90;;;7.20;99.90;;;;;;7373952;19;20020;-62
2023/04/10 01:09:15;;;;;;;64.90;55.20;;;7.10;99.90;;;;;;7377843;19;20061;-68
2023/04/10 01:11:52;;;;;;;73.25;56.83;;;7.10;99.90;;;;;;7370331;19;20018;-67
2023/04/10 01:14:33;;;;;;;68.15;58.08;;;7.10;99.90;;;;;;7367359;19;20853;-67
2023/04/10 01:17:06;;;;;;;69.55;55.53;;;7.10;99.90;;;;;;7375946;19;20781;-67
2023/04/10 01:20:02;;;;;;;69.55;58.60;;;7.10;99.90;;;;;;7365654;19;20032;-62
2023/04/10 01:22:35;;;;;;;72.55;59.75;;;7.00;99.90;;;;;;7368992;19;20033;-62
2023/04/10 01:25:33;;;;;;;77.40;60.08;;;7.00;99.90;;;;;;7369434;19;20313;-62
2023/04/10 01:28:18;;;;;;;75.68;59.83;;;7.00;99.90;;;;;;7368399;19;20022;-61
2023/04/10 01:30:52;;;;;;;75.00;61.50;;;7.00;99.90;;;;;;7366828;19;20026;-62
2023/04/10 01:33:21;;;;;;;76.60;63.60;;;7.00;99.90;;;;;;7370276;19;21406;-63
2023/04/10 01:35:54;;;;;;;73.07;60.67;;;6.90;99.90;;;;;;7366890;19;20021;-62
2023/04/10 01:38:26;;;;;;;75.38;62.08;;;6.90;99.90;;;;;;7368204;19;20031;-63
2023/04/10 01:40:54;;;;;;;78.55;64.10;;;6.90;99.90;;;;;;7370937;19;20015;-62
2023/04/10 01:43:30;;;;;;;78.90;64.75;;;6.80;99.90;;;;;;7367601;19;20068;-62
2023/04/10 01:45:58;;;;;;;76.60;63.67;;;6.80;99.90;;;;;;7369698;19;20018;-63
2023/04/10 01:48:25;;;;;;;79.35;65.00;;;6.80;99.90;;;;;;7370596;19;20086;-63
2023/04/10 01:50:53;;;;;;;77.60;64.13;;;6.80;99.90;;;;;;7376467;19;20018;-63
2023/04/10 01:53:23;;;;;;;85.20;67.95;;;6.80;99.90;;;;;;7375903;19;20665;-63
2023/04/10 01:55:51;;;;;;;83.05;67.57;;;6.80;99.90;;;;;;7376625;19;20010;-63
2023/04/10 01:58:18;;;;;;;78.40;62.40;;;6.80;99.90;;;;;;7375962;19;20510;-62
2023/04/10 02:00:44;;;;;;;85.78;68.97;;;6.80;99.90;;;;;;7374102;19;20039;-61
2023/04/10 02:03:12;;;;;;;82.10;67.05;;;6.70;99.90;;;;;;7365028;19;20803;-62
2023/04/10 02:05:53;;;;;;;82.90;68.35;;;6.70;99.90;;;;;;7362311;19;20194;-62
2023/04/10 02:08:30;;;;;;;82.57;68.32;;;6.70;99.90;;;;;;7361961;19;20032;-62
2023/04/10 02:11:14;;;;;;;82.10;67.80;;;6.70;99.90;;;;;;7362567;19;20018;-62
2023/04/10 02:13:41;;;;;;;78.03;64.18;;;6.70;99.90;;;;;;7370738;19;20029;-67
2023/04/10 02:16:09;;;;;;;77.68;66.80;;;6.70;99.90;;;;;;7369284;19;20030;-67
2023/04/10 02:18:40;;;;;;;79.10;65.85;;;6.70;99.90;;;;;;7371783;19;20082;-68
2023/04/10 02:21:06;;;;;;;78.53;64.05;;;6.70;99.90;;;;;;7374857;19;20618;-67
2023/04/10 02:23:33;;;;;;;77.95;63.42;;;6.70;99.90;;;;;;7367804;19;20708;-67
2023/04/10 02:26:06;;;;;;;79.72;64.13;;;6.80;99.90;;;;;;7225783;19;2830597;-67
2023/04/10 02:28:33;;;;;;;78.45;62.10;;;6.80;99.90;;;;;;7370838;19;20022;-67
2023/04/10 02:30:59;;;;;;;82.95;62.78;;;6.80;99.90;;;;;;7371126;19;20022;-68
2023/04/10 02:33:26;;;;;;;73.63;61.25;;;6.80;99.90;;;;;;7378205;19;20019;-68
2023/04/10 02:35:53;;;;;;;82.63;65.53;;;6.90;99.90;;;;;;7375359;19;20014;-68
2023/04/10 02:38:19;;;;;;;81.32;64.95;;;6.90;99.90;;;;;;7372394;19;20779;-66
2023/04/10 02:40:46;;;;;;;80.57;63.03;;;6.90;99.90;;;;;;7368930;19;20094;-67
2023/04/10 02:43:14;;;;;;;76.15;62.85;;;6.80;99.90;;;;;;7368031;19;20469;-61
2023/04/10 02:45:40;;;;;;;77.45;61.50;;;6.90;99.90;;;;;;7371958;19;20094;-62
2023/04/10 02:48:09;;;;;;;77.47;62.40;;;6.80;99.90;;;;;;7370038;19;20043;-62
2023/04/10 02:50:36;;;;;;;78.15;64.47;;;6.90;99.90;;;;;;7374254;19;20026;-62
2023/04/10 02:53:02;;;;;;;82.00;65.55;;;6.80;99.90;;;;;;7358802;19;20025;-63
2023/04/10 02:55:29;;;;;;;80.75;65.70;;;6.80;99.90;;;;;;7362930;19;20493;-67
2023/04/10 02:57:55;;;;;;;78.35;63.30;;;6.80;99.90;;;;;;7374247;19;20037;-63
2023/04/10 03:00:21;;;;;;;78.28;62.63;;;6.80;99.90;;;;;;7357394;19;20043;-63
2023/04/10 03:03:07;;;;;;;76.80;60.63;;;6.80;99.90;;;;;;7367569;19;20523;-63
2023/04/10 03:05:42;;;;;;;73.75;61.22;;;6.80;99.90;;;;;;7366641;19;20078;-63
2023/04/10 03:08:09;;;;;;;77.22;63.15;;;6.80;99.90;;;;;;7372527;19;20062;-68
2023/04/10 03:10:35;;;;;;;73.55;62.47;;;6.80;99.90;;;;;;7367670;19;20018;-63
2023/04/10 03:13:01;;;;;;;78.03;63.78;;;6.80;99.90;;;;;;7372893;19;20014;-63
2023/04/10 03:15:28;;;;;;;80.63;63.42;;;6.80;99.90;;;;;;7366061;19;20018;-62
2023/04/10 03:17:55;;;;;;;80.18;67.28;;;6.80;99.90;;;;;;7371945;19;20022;-62
2023/04/10 03:20:22;;;;;;;79.28;65.30;;;6.70;99.90;;;;;;7367395;19;20006;-67
2023/04/10 03:22:49;;;;;;;84.10;65.80;;;6.70;99.90;;;;;;7369233;19;20047;-68
2023/04/10 03:25:15;;;;;;;77.38;65.32;;;6.70;99.90;;;;;;7371138;19;20431;-68
2023/04/10 03:27:42;;;;;;;81.82;66.97;;;6.70;99.90;;;;;;7370301;19;20018;-62
2023/04/10 03:30:08;;;;;;;82.25;66.82;;;6.60;99.90;;;;;;7373845;19;20026;-67
2023/04/10 03:32:41;;;;;;;86.85;68.30;;;6.50;99.90;;;;;;7365720;19;21181;-63
2023/04/10 03:35:09;;;;;;;83.75;66.47;;;6.50;99.90;;;;;;7364083;19;20042;-63
2023/04/10 03:37:35;;;;;;;81.88;66.93;;;6.50;99.90;;;;;;7354012;19;20506;-62
2023/04/10 03:40:07;;;;;;;84.20;69.60;;;6.40;99.90;;;;;;7371217;19;20355;-62
2023/04/10 03:42:34;;;;;;;80.25;69.28;;;6.40;99.90;;;;;;7367181;19;20031;-62
2023/04/10 03:45:03;;;;;;;80.32;67.28;;;6.30;99.90;;;;;;7372182;19;20113;-62
2023/04/10 03:47:31;;;;;;;84.93;66.78;;;6.30;99.90;;;;;;7370370;19;20034;-62
2023/04/10 03:49:59;;;;;;;81.53;65.25;;;6.30;99.90;;;;;;7370357;19;20023;-62
2023/04/10 03:52:27;;;;;;;81.20;67.68;;;6.20;99.90;;;;;;7367089;19;20141;-63
2023/04/10 03:54:55;;;;;;;82.65;66.90;;;6.20;99.90;;;;;;7371577;19;20022;-62
2023/04/10 03:57:26;;;;;;;85.72;71.20;;;6.10;99.90;;;;;;7360287;19;20018;-63
2023/04/10 03:59:58;;;;;;;85.07;69.15;;;6.10;99.90;;;;;;7363795;19;20102;-63
2023/04/10 04:02:26;;;;;;;83.43;70.70;;;6.10;99.90;;;;;;7347550;19;20039;-62
2023/04/10 04:04:54;;;;;;;87.95;71.20;;;6.10;99.90;;;;;;7348098;19;20681;-64
2023/04/10 04:07:40;;;;;;;86.30;69.20;;;6.00;99.90;;;;;;7361294;19;20414;-63
2023/04/10 04:10:42;;;;;;;85.10;69.20;;;6.00;99.90;;;;;;7360975;19;20404;-62
2023/04/10 04:13:16;;;;;;;83.32;68.22;;;6.00;99.90;;;;;;7369085;19;20019;-63
2023/04/10 04:16:01;;;;;;;85.35;70.93;;;6.00;99.90;;;;;;7372310;19;20699;-67
2023/04/10 04:18:40;;;;;;;88.38;70.28;;;6.00;99.90;;;;;;7370458;19;20497;-62
2023/04/10 04:21:26;;;;;;;83.10;63.45;;;6.00;99.90;;;;;;7370663;19;20872;-67
2023/04/10 04:24:21;;;;;;;84.40;67.53;;;6.00;99.90;;;;;;7371109;19;20049;-67
2023/04/10 04:27:00;;;;;;;82.13;65.90;;;6.00;99.90;;;;;;7357448;19;20022;-68
2023/04/10 04:29:35;;;;;;;85.80;70.50;;;6.00;99.90;;;;;;7351447;19;20018;-63
2023/04/10 04:32:34;;;;;;;85.43;70.82;;;6.10;99.90;;;;;;7356959;19;22302;-62
2023/04/10 04:35:21;;;;;;;90.18;70.72;;;6.10;99.90;;;;;;7344080;19;20419;-62
2023/04/10 04:38:18;;;;;;;87.38;66.97;;;6.10;99.90;;;;;;7354128;19;20039;-62
2023/04/10 04:41:04;;;;;;;81.20;65.25;;;6.10;99.90;;;;;;7357948;19;20018;-62
2023/04/10 04:43:41;;;;;;;81.88;66.70;;;6.20;99.90;;;;;;7357403;19;20029;-61
2023/04/10 04:46:31;;;;;;;85.07;67.85;;;6.30;99.90;;;;;;7357608;19;20019;-62
2023/04/10 04:49:16;;;;;;;85.25;69.57;;;6.30;99.90;;;;;;7359791;19;20022;-63
2023/04/10 04:52:11;;;;;;;79.55;64.72;;;6.40;99.90;;;;;;7359575;19;20064;-61
2023/04/10 04:55:00;;;;;;;84.88;63.33;;;6.40;99.90;;;;;;7358985;19;20682;-61
2023/04/10 04:57:36;;;;;;;78.82;64.97;;;6.40;99.90;;;;;;7356855;19;20120;-62
2023/04/10 05:00:23;;;;;;;82.03;66.47;;;6.50;99.90;;;;;;7355672;19;20621;-62
2023/04/10 05:03:08;;;;;;;78.70;65.05;;;6.50;99.90;;;;;;7347563;19;20491;-62
2023/04/10 05:05:51;;;;;;;80.47;64.25;;;6.50;99.90;;;;;;7349748;19;20039;-62
2023/04/10 05:08:40;;;;;;;80.30;63.72;;;6.50;99.90;;;;;;7356195;19;20070;-67
2023/04/10 05:11:24;;;;;;;77.05;63.17;;;6.50;99.90;;;;;;7360317;19;20026;-67
2023/04/10 05:13:56;;;;;;;;;;;6.50;99.90;;;;;;7360568;19;20020;-67
2023/04/10 05:16:41;;;;;;;76.53;60.15;;;6.50;99.90;;;;;;7356408;19;19940;-68
2023/04/10 05:19:20;;;;;;;75.78;63.25;;;6.50;99.90;;;;;;7360053;19;20018;-68
2023/04/10 05:22:11;;;;;;;78.70;63.50;;;6.50;99.90;;;;;;7358572;19;20090;-67
2023/04/10 05:25:12;;;;;;;75.82;61.17;;;6.60;99.90;;;;;;7352915;19;22165;-64
2023/04/10 05:27:57;;;;;;;72.32;59.97;;;6.60;99.90;;;;;;7356274;19;20782;-67
2023/04/10 05:30:48;;;;;;;74.35;60.60;;;6.60;99.90;;;;;;7359894;19;20021;-66
2023/04/10 05:33:40;;;;;;;77.35;61.53;;;6.60;99.90;;;;;;7357675;19;20525;-67
2023/04/10 05:36:28;;;;;;;76.72;64.03;;;6.60;99.90;;;;;;7364843;19;20714;-67
2023/04/10 05:39:16;;;;;;;77.80;61.83;;;6.70;99.90;;;;;;7368003;19;20674;-67
2023/04/10 05:42:05;;;;;;;76.28;61.38;;;6.70;99.90;;;;;;7365871;19;20018;-67
2023/04/10 05:44:49;;;;;;;74.45;59.90;;;6.70;99.90;;;;;;7364703;19;20505;-67
2023/04/10 05:47:27;;;;;;;73.57;61.13;;;6.80;99.90;;;;;;7367383;19;20014;-66
2023/04/10 05:50:12;;;;;;;76.15;60.28;;;6.80;99.90;;;;;;7365202;19;21516;-68
2023/04/10 05:53:13;;;;;;;75.55;62.10;;;6.90;99.90;;;;;;7366376;19;20339;-65
2023/04/10 05:55:58;;;;;;;74.00;60.78;;;7.00;99.90;;;;;;7368284;19;20051;-67
2023/04/10 05:58:43;;;;;;;71.80;60.38;;;7.00;99.90;;;;;;7363750;19;20039;-67
2023/04/10 06:01:48;;;;;;;72.78;62.67;;;7.10;99.90;;;;;;7367745;19;20027;-67
2023/04/10 06:04:15;;;;;;;67.20;56.33;;;7.20;99.90;;;;;;7363924;19;20400;-67
2023/04/10 06:06:41;;;;;;;71.90;60.15;;;7.30;99.90;;;;;;7368235;19;20030;-68
2023/04/10 06:09:09;;;;;;;75.15;59.33;;;7.30;99.90;;;;;;7363992;19;20048;-68
2023/04/10 06:11:36;;;;;;;70.75;58.40;;;7.40;99.90;;;;;;7364186;19;20030;-67
2023/04/10 06:14:02;;;;;;;70.95;60.35;;;7.50;99.90;;;;;;7369488;19;20022;-67
2023/04/10 06:16:35;;;;;;;67.13;54.00;;;7.60;99.90;;;;;;7365743;19;20494;-66
2023/04/10 06:19:02;;;;;;;66.38;55.97;;;7.80;99.90;;;;;;7370224;19;20490;-68
2023/04/10 06:21:29;;;;;;;67.72;55.53;;;8.00;99.90;;;;;;7362987;19;20014;-67
2023/04/10 06:23:56;;;;;;;67.10;58.55;;;8.10;99.90;;;;;;7367080;19;20628;-67
2023/04/10 06:26:24;;;;;;;68.60;56.80;;;8.20;99.90;;;;;;7362363;19;20500;-68
2023/04/10 06:28:52;;;;;;;67.60;55.28;;;8.30;99.90;;;;;;7368001;19;20025;-70
2023/04/10 06:31:22;;;;;;;63.08;55.42;;;8.40;99.90;;;;;;7361921;19;20095;-66
2023/04/10 06:33:49;;;;;;;64.20;52.95;;;8.50;99.90;;;;;;7361791;19;20022;-66
2023/04/10 06:36:16;;;;;;;64.22;54.38;;;8.60;99.90;;;;;;7365207;19;20132;-66
2023/04/10 06:38:58;;;;;;;65.93;55.90;;;8.80;99.90;;;;;;7370947;19;20019;-66
2023/04/10 06:41:25;;;;;;;63.38;54.42;;;8.80;99.90;;;;;;7366105;19;20554;-65
2023/04/10 06:43:53;;;;;;;60.78;53.17;;;8.90;99.90;;;;;;7372217;19;20029;-63
2023/04/10 06:46:20;;;;;;;59.58;52.03;;;8.90;99.90;;;;;;7369251;19;20022;-66
2023/04/10 06:48:46;;;;;;;59.97;52.53;;;9.00;99.90;;;;;;7369964;19;20084;-66
2023/04/10 06:51:12;;;;;;;61.72;52.55;;;9.10;99.90;;;;;;7372907;19;20010;-67
2023/04/10 06:53:39;;;;;;;61.63;53.17;;;9.00;99.90;;;;;;7368753;19;20022;-67
2023/04/10 06:56:05;;;;;;;63.60;53.00;;;9.10;99.90;;;;;;7368288;19;20053;-66
2023/04/10 06:58:32;;;;;;;61.83;51.13;;;9.10;99.90;;;;;;7372198;19;20021;-66
2023/04/10 07:01:03;;;;;;;57.40;51.05;;;9.20;99.90;;;;;;7371628;19;20021;-66
2023/04/10 07:03:31;;;;;;;61.38;51.22;;;9.30;99.90;;;;;;7370651;19;20018;-67
2023/04/10 07:05:57;;;;;;;60.03;51.60;;;9.40;99.90;;;;;;7370886;19;20014;-66
2023/04/10 07:08:23;;;;;;;62.50;50.85;;;9.40;99.90;;;;;;7368983;19;20014;-66
2023/04/10 07:10:50;;;;;;;62.05;51.83;;;9.50;99.90;;;;;;7371898;19;20730;-66
2023/04/10 07:13:16;;;;;;;57.97;50.45;;;9.40;99.90;;;;;;7369276;19;20015;-66
2023/04/10 07:15:42;;;;;;;55.42;48.30;;;9.50;99.90;;;;;;7367054;19;20045;-68
2023/04/10 07:18:08;;;;;;;57.28;47.95;;;9.60;99.90;;;;;;7369780;19;20034;-66
2023/04/10 07:20:34;;;;;;;56.53;48.58;;;9.80;99.90;;;;;;7366140;19;20023;-66
2023/04/10 07:23:00;;;;;;;56.85;47.83;;;10.10;99.90;;;;;;7371947;19;20018;-66
2023/04/10 07:25:27;;;;;;;56.72;48.92;;;10.40;99.90;;;;;;7368092;19;20029;-66
2023/04/10 07:27:53;;;;;;;55.58;48.10;;;10.60;99.90;;;;;;7363708;19;20025;-67
2023/04/10 07:30:20;;;;;;;53.78;46.22;;;10.80;99.90;;;;;;7352542;19;20450;-67
2023/04/10 07:32:46;;;;;;;53.25;46.10;;;11.00;99.90;;;;;;7367122;19;20054;-66
2023/04/10 07:35:12;;;;;;;52.90;45.10;;;11.20;99.90;;;;;;7372469;19;20026;-66
2023/04/10 07:37:39;;;;;;;51.67;44.17;;;11.40;99.90;;;;;;7368911;19;20022;-62
2023/04/10 07:40:06;;;;;;;53.13;45.67;;;11.70;99.90;;;;;;7374171;19;20018;-63
2023/04/10 07:42:33;;;;;;;48.47;39.58;;;11.90;99.90;;;;;;7368874;19;20879;-64
2023/04/10 07:44:59;;;;;;;48.03;41.60;;;12.20;99.90;;;;;;7370583;19;20033;-65
2023/04/10 07:47:26;;;;;;;46.22;39.38;;;12.40;99.90;;;;;;7365363;19;20022;-64
2023/04/10 07:49:52;;;;;;;46.50;40.75;;;12.70;99.90;;;;;;7370671;19;20022;-64
2023/04/10 07:52:18;;;;;;;43.53;38.80;;;12.70;99.90;;;;;;7368294;19;20022;-65
2023/04/10 07:54:44;;;;;;;44.50;36.80;;;12.90;99.90;;;;;;7370087;19;20075;-65
2023/04/10 07:57:10;;;;;;;43.67;37.10;;;13.30;99.90;;;;;;7366856;19;20022;-64
2023/04/10 07:59:37;;;;;;;42.88;37.13;;;13.80;99.90;;;;;;7367349;19;20596;-65
2023/04/10 08:02:03;;;;;;;39.17;35.08;;;14.00;99.90;;;;;;7369422;19;20014;-64
2023/04/10 08:04:29;;;;;;;38.75;34.22;;;14.20;99.90;;;;;;7367190;19;20026;-64
2023/04/10 08:06:56;;;;;;;40.92;36.08;;;14.60;99.90;;;;;;7372796;19;20018;-64
2023/04/10 08:09:22;;;;;;;35.00;31.38;;;14.60;99.90;;;;;;7366684;19;20023;-65
2023/04/10 08:11:51;;;;;;;34.22;28.60;;;14.70;99.90;;;;;;7371699;19;20026;-65
2023/04/10 08:14:17;;;;;;;31.40;28.20;;;14.80;99.10;;;;;;7368283;19;20014;-65
2023/04/10 08:16:43;;;;;;;31.67;28.27;;;15.00;97.70;;;;;;7365148;19;20019;-64
2023/04/10 08:19:10;;;;;;;30.08;26.63;;;15.20;96.20;;;;;;7370705;19;20033;-65
2023/04/10 08:21:36;;;;;;;29.83;26.38;;;15.40;91.20;;;;;;7365897;19;20015;-65
2023/04/10 08:24:03;;;;;;;27.92;24.75;;;15.50;86.80;;;;;;7372279;19;20370;-65
2023/04/10 08:26:30;;;;;;;28.25;25.35;;;15.70;78.60;;;;;;7366467;19;20022;-64
2023/04/10 08:28:58;;;;;;;26.52;23.65;;;15.70;76.80;;;;;;7365368;19;20018;-64
2023/04/10 08:31:26;;;;;;;28.30;25.25;;;15.80;74.60;;;;;;7356533;19;20018;-64
2023/04/10 08:33:53;;;;;;;27.58;24.67;;;15.60;75.60;;;;;;7364814;19;20019;-64
2023/04/10 08:36:19;;;;;;;21.70;19.35;;;15.50;79.60;;;;;;7365388;19;20022;-64
2023/04/10 08:38:46;;;;;;;23.35;20.95;;;15.30;74.90;;;;;;7370184;19;20445;-63
2023/04/10 08:41:14;;;;;;;22.55;20.13;;;15.30;73.70;;;;;;7368404;19;20498;-64
2023/04/10 08:43:42;;;;;;;20.67;18.58;;;15.60;74.60;;;;;;7367460;19;20018;-63
2023/04/10 08:46:08;;;;;;;21.00;18.60;;;15.70;71.20;;;;;;7369171;19;20962;-64
2023/04/10 08:49:00;;;;;;;20.05;18.05;;;15.60;69.10;;;;;;7366875;19;20759;-65
2023/04/10 08:51:34;;;;;;;21.98;18.10;;;15.50;65.60;;;;;;7369420;19;20082;-64
2023/04/10 08:54:13;;;;;;;19.20;17.20;;;15.60;67.50;;;;;;7367189;19;22643;-64
2023/04/10 08:56:41;;;;;;;19.25;17.08;;;15.70;68.70;;;;;;7363286;19;20046;-63
2023/04/10 08:59:08;;;;;;;20.08;17.98;;;16.00;67.90;;;;;;7368478;19;20022;-63
2023/04/10 09:01:35;;;;;;;19.83;17.77;;;16.50;67.00;;;;;;7372020;19;20022;-64
2023/04/10 09:04:05;;;;;;;18.00;16.15;;;16.70;67.20;;;;;;7369714;19;20398;-64
2023/04/10 09:06:31;;;;;;;18.63;16.65;;;16.90;63.10;;;;;;7371074;19;20055;-64
2023/04/10 09:08:58;;;;;;;17.58;15.40;;;16.90;63.00;;;;;;7368530;19;20027;-64
2023/04/10 09:11:50;;;;;;;17.42;15.63;;;16.80;61.80;;;;;;7364901;19;20019;-65
2023/04/10 09:14:24;;;;;;;18.00;15.30;;;16.80;61.30;;;;;;7372970;19;20467;-64
2023/04/10 09:16:53;;;;;;;16.40;14.70;;;16.60;60.80;;;;;;7363812;19;20019;-65
2023/04/10 09:19:38;;;;;;;16.38;14.68;;;16.80;61.40;;;;;;7368114;19;20022;-64
2023/04/10 09:22:04;;;;;;;15.95;14.18;;;16.80;60.20;;;;;;7364889;19;20015;-64
2023/04/10 09:24:36;;;;;;;16.25;14.57;;;17.00;61.70;;;;;;7367340;19;20025;-65
2023/04/10 09:27:03;;;;;;;16.02;14.32;;;16.90;60.40;;;;;;7360407;19;20021;-65
2023/04/10 09:29:47;;;;;;;16.30;13.77;;;16.80;60.20;;;;;;7357002;19;20018;-64
2023/04/10 09:32:35;;;;;;;15.77;14.10;;;16.70;59.00;;;;;;7354822;19;20042;-64
2023/04/10 09:35:01;;;;;;;14.38;12.85;;;16.90;61.00;;;;;;7364456;19;20050;-64
2023/04/10 09:37:31;;;;;;;16.13;13.80;;;17.20;61.10;;;;;;7364204;19;20047;-64
2023/04/10 09:39:58;;;;;;;15.13;13.63;;;17.40;60.70;;;;;;7366475;19;20026;-65
2023/04/10 09:42:33;;;;;;;14.75;12.63;;;17.00;59.40;;;;;;7365653;19;20033;-65
2023/04/10 09:45:00;;;;;;;14.77;13.27;;;16.70;58.00;;;;;;7362765;19;20394;-65
2023/04/10 09:47:27;;;;;;;15.20;13.35;;;16.60;59.40;;;;;;7362696;19;20395;-65
2023/04/10 09:49:55;;;;;;;13.93;11.75;;;16.40;59.10;;;;;;7371818;19;20585;-65
2023/04/10 09:52:25;;;;;;;14.77;13.15;;;16.30;59.60;;;;;;7364913;19;21920;-65
2023/04/10 09:54:59;;;;;;;14.25;12.75;;;16.40;60.30;;;;;;7367020;19;20036;-65
2023/04/10 09:57:27;;;;;;;15.32;12.98;;;16.20;60.20;;;;;;7365691;19;20015;-65
2023/04/10 09:59:55;;;;;;;13.82;12.43;;;16.30;59.80;;;;;;7367105;19;20021;-65
2023/04/10 10:02:27;;;;;;;14.63;13.13;;;16.40;59.80;;;;;;7364585;19;20026;-65
2023/04/10 10:04:54;;;;;;;13.23;11.82;;;16.70;59.70;;;;;;7363811;19;20024;-65
2023/04/10 10:07:22;;;;;;;14.00;12.00;;;16.90;59.30;;;;;;7365053;19;20554;-65
2023/04/10 10:09:51;;;;;;;13.07;11.57;;;17.00;58.90;;;;;;7366488;19;20601;-66
2023/04/10 10:12:49;;;;;;;14.38;12.88;;;17.10;58.60;;;;;;7375526;19;20014;-65
2023/04/10 10:15:27;;;;;;;13.98;11.85;;;17.10;57.30;;;;;;7372119;19;20021;-64
2023/04/10 10:18:12;;;;;;;13.18;10.80;;;17.20;57.10;;;;;;7377258;19;20018;-64
2023/04/10 10:20:43;;;;;;;12.55;11.25;;;17.50;57.20;;;;;;7372398;19;20945;-64
2023/04/10 10:23:09;;;;;;;11.30;10.15;;;17.50;57.70;;;;;;7374615;19;20488;-64
2023/04/10 10:25:37;;;;;;;12.70;11.38;;;17.40;56.70;;;;;;7372222;19;20019;-64
2023/04/10 10:28:04;;;;;;;12.20;10.50;;;17.40;58.10;;;;;;7373362;19;20006;-64
2023/04/10 10:30:34;;;;;;;11.43;10.23;;;17.40;58.50;;;;;;7365917;19;21509;-64
2023/04/10 10:33:05;;;;;;;10.75;9.63;;;17.50;58.10;;;;;;7375294;19;20085;-64
2023/04/10 10:35:35;;;;;;;11.40;9.55;;;17.40;57.60;;;;;;7367519;19;20356;-64
2023/04/10 10:38:04;;;;;;;10.60;9.50;;;17.40;58.50;;;;;;7372532;19;20494;-64
2023/04/10 10:40:42;;;;;;;10.25;9.02;;;17.00;58.60;;;;;;7370935;19;20054;-65
2023/04/10 10:43:36;;;;;;;10.07;8.95;;;16.90;57.90;;;;;;7374319;19;20029;-64
2023/04/10 10:46:04;;;;;;;9.73;8.73;;;16.80;58.70;;;;;;7368939;19;20708;-64
2023/04/10 10:48:30;;;;;;;8.73;7.82;;;16.70;58.70;;;;;;7348803;19;20028;-64
2023/04/10 10:50:59;;;;;;;8.95;7.90;;;16.80;59.00;;;;;;7369713;19;20581;-64
2023/04/10 10:53:39;;;;;;;8.82;7.88;;;16.60;57.70;;;;;;7369420;19;20015;-64
2023/04/10 10:56:21;;;;;;;9.63;7.47;;;16.40;58.00;;;;;;7367314;19;20502;-64
2023/04/10 10:58:48;;;;;;;9.00;7.28;;;16.30;59.10;;;;;;7369755;19;20025;-64
2023/04/10 11:01:15;;;;;;;9.00;8.02;;;16.30;59.40;;;;;;7372730;19;20094;-64
2023/04/10 11:03:43;;;;;;;10.57;7.32;;;16.40;59.90;;;;;;7368632;19;20407;-64
2023/04/10 11:06:12;;;;;;;9.32;7.78;;;16.40;59.90;;;;;;7366721;19;20029;-65
2023/04/10 11:08:45;;;;;;;9.25;7.82;;;16.50;60.10;;;;;;7368339;19;20026;-64
2023/04/10 11:11:19;;;;;;;7.95;7.15;;;16.30;59.50;;;;;;7368871;19;20031;-64
2023/04/10 11:13:51;;;;;;;8.73;7.50;;;16.30;59.90;;;;;;7366724;19;20376;-64
2023/04/10 11:16:19;;;;;;;10.00;6.90;;;16.20;59.20;;;;;;7368194;19;20082;-64
2023/04/10 11:18:48;;;;;;;8.45;6.75;;;16.30;59.30;;;;;;7367189;19;20060;-65
2023/04/10 11:21:22;;;;;;;7.00;6.25;;;16.30;59.60;;;;;;7366009;19;20633;-64
2023/04/10 11:23:57;;;;;;;7.07;6.15;;;16.50;60.80;;;;;;7370311;19;20051;-65
2023/04/10 11:26:32;;;;;;;7.20;5.95;;;16.60;59.50;;;;;;7366862;19;20018;-64
2023/04/10 11:29:03;;;;;;;7.57;6.57;;;16.80;61.20;;;;;;7372114;19;20017;-65
2023/04/10 11:31:30;;;;;;;8.48;5.97;;;16.80;60.60;;;;;;7368544;19;20015;-64
2023/04/10 11:33:57;;;;;;;6.95;5.78;;;16.80;60.60;;;;;;7369805;19;20346;-65
2023/04/10 11:36:26;;;;;;;7.07;5.72;;;16.60;59.50;;;;;;7370001;19;20025;-65
2023/04/10 11:39:09;;;;;;;8.52;5.65;;;16.60;59.40;;;;;;7369478;19;20022;-65
2023/04/10 11:41:38;;;;;;;6.20;5.13;;;16.60;60.50;;;;;;7364408;19;20010;-65
2023/04/10 11:44:26;;;;;;;7.68;5.57;;;16.50;59.00;;;;;;7370093;19;20562;-63
2023/04/10 11:46:52;;;;;;;6.88;5.72;;;16.50;59.50;;;;;;7368786;19;20028;-64
2023/04/10 11:49:21;;;;;;;6.15;5.50;;;16.50;60.40;;;;;;7372914;19;20485;-64
2023/04/10 11:51:49;;;;;;;7.88;5.65;;;16.50;60.30;;;;;;7363704;19;20034;-63
2023/04/10 11:54:27;;;;;;;8.60;6.03;;;16.60;60.00;;;;;;7370913;19;20266;-65
2023/04/10 11:57:11;;;;;;;7.38;5.78;;;16.50;59.80;;;;;;7370341;19;20018;-64
2023/04/10 11:59:38;;;;;;;7.18;5.45;;;16.70;59.10;;;;;;7368367;19;20082;-65
2023/04/10 12:02:08;;;;;;;7.25;5.30;;;16.80;59.20;;;;;;7367180;19;20025;-65
2023/04/10 12:04:35;;;;;;;6.82;5.60;;;17.10;59.30;;;;;;7362930;19;20019;-63
2023/04/10 12:07:01;;;;;;;6.53;5.20;;;17.40;59.60;;;;;;7368291;19;20071;-65
2023/04/10 12:09:28;;;;;;;7.22;5.13;;;17.70;59.60;;;;;;7369336;19;20022;-65
2023/04/10 12:12:00;;;;;;;7.45;5.18;;;17.90;58.60;;;;;;7370328;19;20466;-65
2023/04/10 12:14:35;;;;;;;6.32;4.85;;;18.00;58.30;;;;;;7369590;19;20018;-65
2023/04/10 12:17:03;;;;;;;7.97;5.68;;;18.30;58.90;;;;;;7364871;19;20022;-65
2023/04/10 12:19:30;;;;;;;8.35;5.95;;;18.30;57.80;;;;;;7369435;19;20030;-65
2023/04/10 12:21:58;;;;;;;6.38;5.38;;;18.30;58.20;;;;;;7368102;19;20100;-65
2023/04/10 12:24:46;;;;;;;7.22;5.45;;;18.50;58.30;;;;;;7356630;19;20054;-65
2023/04/10 12:27:22;;;;;;;6.93;5.38;;;18.70;58.30;;;;;;7357733;19;20921;-65
2023/04/10 12:29:51;;;;;;;7.70;5.43;;;18.90;57.30;;;;;;7362384;19;20022;-66
2023/04/10 12:32:18;;;;;;;7.43;5.30;;;19.30;56.10;;;;;;7367800;19;20018;-65
2023/04/10 12:34:56;;;;;;;6.90;5.57;;;19.20;56.00;;;;;;7360621;19;20014;-65
2023/04/10 12:37:23;;;;;;;7.43;5.53;;;18.90;55.90;;;;;;7363575;19;20015;-65
2023/04/10 12:39:50;;;;;;;8.27;6.13;;;18.30;56.60;;;;;;7363953;19;20054;-65
2023/04/10 12:42:21;;;;;;;7.35;5.80;;;17.80;58.30;;;;;;7367349;19;20117;-65
2023/04/10 12:45:00;;;;;;;6.18;5.00;;;17.30;59.00;;;;;;7367451;19;20078;-65
2023/04/10 12:47:28;;;;;;;7.50;5.38;;;17.20;60.80;;;;;;7366604;19;20018;-64
2023/04/10 12:50:09;;;;;;;7.07;5.43;;;17.10;60.40;;;;;;7370012;19;20470;-64
2023/04/10 12:52:37;;;;;;;6.22;5.28;;;16.90;61.40;;;;;;7366340;19;20022;-64
2023/04/10 12:55:17;;;;;;;8.93;5.57;;;16.80;61.30;;;;;;7369015;19;20509;-65
2023/04/10 12:57:45;;;;;;;8.98;5.55;;;16.80;62.40;;;;;;7369747;19;20017;-65
2023/04/10 13:00:14;;;;;;;6.82;5.85;;;16.80;62.00;;;;;;7364388;19;20993;-65